35TS weather

Hempstead Gliderport
Hempstead, Texas, United States

Public forecast

Using degrees Fahrenheit for public forecast. Weather courtesy of forecast.io.

METAR (pilot weather report)

Closest report is Brenham Municipal Airport, 16.0 nm (29.7 km) WNW. Retrieved 2019/07/21 22:35 UTC (0 seconds ago):

K11R 212235Z AUTO 15005KT 10SM CLR 35/19 A2991 RMK AO2 T03480188

TAF (pilot weather forecast)

Forecast is more than 12 hours old.

Closest forecast is David Wayne Hooks Memorial Airport, 28.0 nm (51.8 km) E. Retrieved 2017/02/07 12:51 UTC (2 years ago):

TAF KDWH 071148Z 0712/0812 20009G15KT P6SM SCT022 OVC030 TEMPO 0712/0715 BKN018 FM071500 23010KT P6SM BKN015 FM071900 25010KT P6SM SCT025 FM080100 22005KT P6SM SCT250 TEMPO 0807/0809 3SM BR BKN013 FM080900 VRB03KT 2SM BR OVC008